sensor_id;sensor_type;location;lat;lon;timestamp;P1;durP1;ratioP1;P2;durP2;ratioP2
20067;SDS011;10194;50.824;7.134;2023-07-29T00:02:10;137.50;;;83.83;;
20067;SDS011;10194;50.824;7.134;2023-07-29T00:04:35;143.87;;;88.47;;
20067;SDS011;10194;50.824;7.134;2023-07-29T00:07:01;139.60;;;84.93;;
20067;SDS011;10194;50.824;7.134;2023-07-29T00:09:27;140.77;;;85.53;;
20067;SDS011;10194;50.824;7.134;2023-07-29T00:11:53;141.53;;;84.60;;
20067;SDS011;10194;50.824;7.134;2023-07-29T00:14:24;143.57;;;87.70;;
20067;SDS011;10194;50.824;7.134;2023-07-29T00:16:50;139.00;;;84.57;;
20067;SDS011;10194;50.824;7.134;2023-07-29T00:19:17;148.33;;;89.60;;
20067;SDS011;10194;50.824;7.134;2023-07-29T00:21:45;139.20;;;84.03;;
20067;SDS011;10194;50.824;7.134;2023-07-29T00:24:12;138.70;;;83.27;;
20067;SDS011;10194;50.824;7.134;2023-07-29T00:26:38;144.97;;;87.33;;
20067;SDS011;10194;50.824;7.134;2023-07-29T00:29:04;146.77;;;85.33;;
20067;SDS011;10194;50.824;7.134;2023-07-29T00:31:29;139.53;;;84.10;;
20067;SDS011;10194;50.824;7.134;2023-07-29T00:33:55;138.40;;;83.03;;
20067;SDS011;10194;50.824;7.134;2023-07-29T00:36:23;140.77;;;85.53;;
20067;SDS011;10194;50.824;7.134;2023-07-29T00:38:48;138.03;;;83.60;;
20067;SDS011;10194;50.824;7.134;2023-07-29T00:41:14;136.93;;;82.30;;
20067;SDS011;10194;50.824;7.134;2023-07-29T00:43:41;142.03;;;85.70;;
20067;SDS011;10194;50.824;7.134;2023-07-29T00:46:07;138.23;;;83.47;;
20067;SDS011;10194;50.824;7.134;2023-07-29T00:48:34;139.77;;;83.03;;
20067;SDS011;10194;50.824;7.134;2023-07-29T00:51:00;138.77;;;81.63;;
20067;SDS011;10194;50.824;7.134;2023-07-29T00:53:26;139.37;;;83.30;;
20067;SDS011;10194;50.824;7.134;2023-07-29T00:55:52;140.80;;;84.13;;
20067;SDS011;10194;50.824;7.134;2023-07-29T00:58:18;140.20;;;83.67;;
20067;SDS011;10194;50.824;7.134;2023-07-29T01:00:44;140.47;;;84.20;;
20067;SDS011;10194;50.824;7.134;2023-07-29T01:03:10;140.93;;;83.77;;
20067;SDS011;10194;50.824;7.134;2023-07-29T01:05:50;138.23;;;83.27;;
20067;SDS011;10194;50.824;7.134;2023-07-29T01:08:54;135.97;;;82.77;;
20067;SDS011;10194;50.824;7.134;2023-07-29T01:14:45;139.33;;;83.27;;
20067;SDS011;10194;50.824;7.134;2023-07-29T01:17:28;136.43;;;83.00;;
20067;SDS011;10194;50.824;7.134;2023-07-29T01:20:08;144.27;;;83.53;;
20067;SDS011;10194;50.824;7.134;2023-07-29T01:22:41;139.73;;;82.00;;
20067;SDS011;10194;50.824;7.134;2023-07-29T01:25:07;141.73;;;83.40;;
20067;SDS011;10194;50.824;7.134;2023-07-29T01:27:33;138.57;;;82.57;;
20067;SDS011;10194;50.824;7.134;2023-07-29T01:29:59;138.60;;;82.47;;
20067;SDS011;10194;50.824;7.134;2023-07-29T01:32:29;141.80;;;83.17;;
20067;SDS011;10194;50.824;7.134;2023-07-29T01:35:23;140.03;;;83.10;;
20067;SDS011;10194;50.824;7.134;2023-07-29T01:38:29;139.10;;;82.53;;
20067;SDS011;10194;50.824;7.134;2023-07-29T01:41:02;140.07;;;83.60;;
20067;SDS011;10194;50.824;7.134;2023-07-29T01:43:29;138.23;;;83.00;;
20067;SDS011;10194;50.824;7.134;2023-07-29T01:45:56;139.67;;;84.50;;
20067;SDS011;10194;50.824;7.134;2023-07-29T01:48:22;138.83;;;83.13;;
20067;SDS011;10194;50.824;7.134;2023-07-29T01:50:48;140.30;;;81.90;;
20067;SDS011;10194;50.824;7.134;2023-07-29T01:53:14;139.77;;;82.77;;
20067;SDS011;10194;50.824;7.134;2023-07-29T01:55:40;141.17;;;84.80;;
20067;SDS011;10194;50.824;7.134;2023-07-29T01:58:07;139.40;;;84.60;;
20067;SDS011;10194;50.824;7.134;2023-07-29T02:00:33;140.23;;;83.10;;
20067;SDS011;10194;50.824;7.134;2023-07-29T02:02:58;139.13;;;82.90;;
20067;SDS011;10194;50.824;7.134;2023-07-29T02:05:24;140.40;;;83.97;;
20067;SDS011;10194;50.824;7.134;2023-07-29T02:07:50;137.13;;;82.57;;
20067;SDS011;10194;50.824;7.134;2023-07-29T02:10:16;142.10;;;85.57;;
20067;SDS011;10194;50.824;7.134;2023-07-29T02:12:41;142.80;;;82.43;;
20067;SDS011;10194;50.824;7.134;2023-07-29T02:15:07;143.67;;;83.77;;
20067;SDS011;10194;50.824;7.134;2023-07-29T02:17:34;138.67;;;85.43;;
20067;SDS011;10194;50.824;7.134;2023-07-29T02:20:00;140.03;;;83.67;;
20067;SDS011;10194;50.824;7.134;2023-07-29T02:22:28;139.87;;;86.03;;
20067;SDS011;10194;50.824;7.134;2023-07-29T02:24:55;141.63;;;83.80;;
20067;SDS011;10194;50.824;7.134;2023-07-29T02:27:20;141.00;;;83.70;;
20067;SDS011;10194;50.824;7.134;2023-07-29T02:29:46;143.20;;;84.57;;
20067;SDS011;10194;50.824;7.134;2023-07-29T02:32:12;139.37;;;83.37;;
20067;SDS011;10194;50.824;7.134;2023-07-29T02:34:38;139.70;;;85.20;;
20067;SDS011;10194;50.824;7.134;2023-07-29T02:37:04;138.83;;;84.93;;
20067;SDS011;10194;50.824;7.134;2023-07-29T02:39:30;138.70;;;83.53;;
20067;SDS011;10194;50.824;7.134;2023-07-29T02:41:56;141.07;;;81.87;;
20067;SDS011;10194;50.824;7.134;2023-07-29T02:44:23;138.90;;;85.50;;
20067;SDS011;10194;50.824;7.134;2023-07-29T02:46:49;140.40;;;85.60;;
20067;SDS011;10194;50.824;7.134;2023-07-29T02:49:17;142.47;;;85.97;;
20067;SDS011;10194;50.824;7.134;2023-07-29T02:51:43;142.13;;;84.50;;
20067;SDS011;10194;50.824;7.134;2023-07-29T02:54:08;142.17;;;84.87;;
20067;SDS011;10194;50.824;7.134;2023-07-29T02:56:34;138.57;;;84.57;;
20067;SDS011;10194;50.824;7.134;2023-07-29T02:59:00;143.37;;;84.43;;
20067;SDS011;10194;50.824;7.134;2023-07-29T03:01:26;141.53;;;83.37;;
20067;SDS011;10194;50.824;7.134;2023-07-29T03:03:52;139.00;;;82.60;;
20067;SDS011;10194;50.824;7.134;2023-07-29T03:06:18;141.70;;;83.63;;
20067;SDS011;10194;50.824;7.134;2023-07-29T03:08:44;144.20;;;84.53;;
20067;SDS011;10194;50.824;7.134;2023-07-29T03:11:11;141.83;;;83.77;;
20067;SDS011;10194;50.824;7.134;2023-07-29T03:13:39;141.53;;;85.47;;
20067;SDS011;10194;50.824;7.134;2023-07-29T03:18:32;141.77;;;83.93;;
20067;SDS011;10194;50.824;7.134;2023-07-29T03:20:57;140.93;;;84.53;;
20067;SDS011;10194;50.824;7.134;2023-07-29T03:23:23;137.70;;;82.33;;
20067;SDS011;10194;50.824;7.134;2023-07-29T03:25:49;139.07;;;83.53;;
20067;SDS011;10194;50.824;7.134;2023-07-29T03:28:21;140.23;;;82.60;;
20067;SDS011;10194;50.824;7.134;2023-07-29T03:30:50;144.53;;;85.50;;
20067;SDS011;10194;50.824;7.134;2023-07-29T03:33:16;140.83;;;83.37;;
20067;SDS011;10194;50.824;7.134;2023-07-29T03:35:41;138.30;;;81.07;;
20067;SDS011;10194;50.824;7.134;2023-07-29T03:38:09;139.53;;;80.57;;
20067;SDS011;10194;50.824;7.134;2023-07-29T03:40:36;136.30;;;79.17;;
20067;SDS011;10194;50.824;7.134;2023-07-29T03:43:06;138.77;;;80.97;;
20067;SDS011;10194;50.824;7.134;2023-07-29T03:45:34;135.80;;;79.87;;
20067;SDS011;10194;50.824;7.134;2023-07-29T03:48:01;136.53;;;80.77;;
20067;SDS011;10194;50.824;7.134;2023-07-29T03:50:28;137.90;;;82.27;;
20067;SDS011;10194;50.824;7.134;2023-07-29T03:52:55;137.50;;;81.13;;
20067;SDS011;10194;50.824;7.134;2023-07-29T03:55:21;139.63;;;80.43;;
20067;SDS011;10194;50.824;7.134;2023-07-29T03:57:48;138.53;;;80.40;;
20067;SDS011;10194;50.824;7.134;2023-07-29T04:00:14;137.13;;;79.77;;
20067;SDS011;10194;50.824;7.134;2023-07-29T04:02:41;136.97;;;80.03;;
20067;SDS011;10194;50.824;7.134;2023-07-29T04:05:07;135.67;;;79.17;;
20067;SDS011;10194;50.824;7.134;2023-07-29T04:07:34;135.93;;;80.53;;
20067;SDS011;10194;50.824;7.134;2023-07-29T04:10:01;137.80;;;79.40;;
20067;SDS011;10194;50.824;7.134;2023-07-29T04:12:27;136.73;;;79.13;;
20067;SDS011;10194;50.824;7.134;2023-07-29T04:14:53;140.73;;;79.87;;
20067;SDS011;10194;50.824;7.134;2023-07-29T04:17:19;139.40;;;80.07;;
20067;SDS011;10194;50.824;7.134;2023-07-29T04:19:44;139.33;;;79.30;;
20067;SDS011;10194;50.824;7.134;2023-07-29T04:22:10;139.23;;;79.13;;
20067;SDS011;10194;50.824;7.134;2023-07-29T04:24:37;138.07;;;79.53;;
20067;SDS011;10194;50.824;7.134;2023-07-29T04:27:03;136.73;;;78.53;;
20067;SDS011;10194;50.824;7.134;2023-07-29T04:29:29;136.60;;;79.47;;
20067;SDS011;10194;50.824;7.134;2023-07-29T04:31:55;133.03;;;77.80;;
20067;SDS011;10194;50.824;7.134;2023-07-29T04:34:21;137.17;;;77.87;;
20067;SDS011;10194;50.824;7.134;2023-07-29T04:36:47;132.43;;;76.70;;
20067;SDS011;10194;50.824;7.134;2023-07-29T04:39:13;138.33;;;79.13;;
20067;SDS011;10194;50.824;7.134;2023-07-29T04:41:39;133.83;;;76.90;;
20067;SDS011;10194;50.824;7.134;2023-07-29T04:44:06;132.73;;;77.00;;
20067;SDS011;10194;50.824;7.134;2023-07-29T04:46:32;134.43;;;76.80;;
20067;SDS011;10194;50.824;7.134;2023-07-29T04:48:58;139.63;;;78.30;;
20067;SDS011;10194;50.824;7.134;2023-07-29T04:51:24;134.17;;;76.83;;
20067;SDS011;10194;50.824;7.134;2023-07-29T04:53:50;133.33;;;77.37;;
20067;SDS011;10194;50.824;7.134;2023-07-29T04:56:16;137.70;;;77.27;;
20067;SDS011;10194;50.824;7.134;2023-07-29T04:58:41;137.53;;;77.97;;
20067;SDS011;10194;50.824;7.134;2023-07-29T05:01:07;136.23;;;77.30;;
20067;SDS011;10194;50.824;7.134;2023-07-29T05:03:33;134.63;;;78.47;;
20067;SDS011;10194;50.824;7.134;2023-07-29T05:05:59;134.80;;;79.20;;
20067;SDS011;10194;50.824;7.134;2023-07-29T05:08:25;136.20;;;77.53;;
20067;SDS011;10194;50.824;7.134;2023-07-29T05:10:52;135.73;;;78.37;;
20067;SDS011;10194;50.824;7.134;2023-07-29T05:13:19;136.93;;;78.03;;
20067;SDS011;10194;50.824;7.134;2023-07-29T05:15:46;134.83;;;78.00;;
20067;SDS011;10194;50.824;7.134;2023-07-29T05:18:13;138.10;;;79.03;;
20067;SDS011;10194;50.824;7.134;2023-07-29T05:20:39;135.70;;;79.57;;
20067;SDS011;10194;50.824;7.134;2023-07-29T05:23:04;135.67;;;78.87;;
20067;SDS011;10194;50.824;7.134;2023-07-29T05:25:30;139.70;;;80.23;;
20067;SDS011;10194;50.824;7.134;2023-07-29T05:27:56;135.10;;;78.77;;
20067;SDS011;10194;50.824;7.134;2023-07-29T05:30:22;135.77;;;79.53;;
20067;SDS011;10194;50.824;7.134;2023-07-29T05:32:48;139.43;;;82.33;;
20067;SDS011;10194;50.824;7.134;2023-07-29T05:35:14;135.63;;;79.37;;
20067;SDS011;10194;50.824;7.134;2023-07-29T05:37:40;136.40;;;77.97;;
20067;SDS011;10194;50.824;7.134;2023-07-29T05:40:06;140.13;;;80.07;;
20067;SDS011;10194;50.824;7.134;2023-07-29T05:42:33;136.57;;;79.30;;
20067;SDS011;10194;50.824;7.134;2023-07-29T05:45:00;138.20;;;80.70;;
20067;SDS011;10194;50.824;7.134;2023-07-29T05:47:26;137.50;;;82.30;;
20067;SDS011;10194;50.824;7.134;2023-07-29T05:49:52;136.70;;;81.77;;
20067;SDS011;10194;50.824;7.134;2023-07-29T05:52:18;136.67;;;79.80;;
20067;SDS011;10194;50.824;7.134;2023-07-29T05:54:44;138.17;;;82.17;;
20067;SDS011;10194;50.824;7.134;2023-07-29T05:57:11;135.83;;;79.47;;
20067;SDS011;10194;50.824;7.134;2023-07-29T05:59:37;137.93;;;81.27;;
20067;SDS011;10194;50.824;7.134;2023-07-29T06:02:04;135.03;;;79.73;;
20067;SDS011;10194;50.824;7.134;2023-07-29T06:04:31;136.10;;;79.80;;
20067;SDS011;10194;50.824;7.134;2023-07-29T06:06:57;140.60;;;83.23;;
20067;SDS011;10194;50.824;7.134;2023-07-29T06:09:22;138.77;;;80.37;;
20067;SDS011;10194;50.824;7.134;2023-07-29T06:11:50;145.80;;;84.60;;
20067;SDS011;10194;50.824;7.134;2023-07-29T06:14:16;140.10;;;82.90;;
20067;SDS011;10194;50.824;7.134;2023-07-29T06:16:42;138.70;;;80.67;;
20067;SDS011;10194;50.824;7.134;2023-07-29T06:19:08;144.90;;;84.57;;
20067;SDS011;10194;50.824;7.134;2023-07-29T06:21:34;140.63;;;86.77;;
20067;SDS011;10194;50.824;7.134;2023-07-29T06:24:00;139.13;;;83.57;;
20067;SDS011;10194;50.824;7.134;2023-07-29T06:26:26;139.20;;;84.03;;
20067;SDS011;10194;50.824;7.134;2023-07-29T06:28:53;137.80;;;82.03;;
20067;SDS011;10194;50.824;7.134;2023-07-29T06:31:19;144.70;;;86.27;;
20067;SDS011;10194;50.824;7.134;2023-07-29T06:33:45;138.57;;;83.63;;
20067;SDS011;10194;50.824;7.134;2023-07-29T06:36:11;150.70;;;87.23;;
20067;SDS011;10194;50.824;7.134;2023-07-29T06:38:37;141.90;;;84.17;;
20067;SDS011;10194;50.824;7.134;2023-07-29T06:41:04;138.43;;;82.43;;
20067;SDS011;10194;50.824;7.134;2023-07-29T06:43:30;138.60;;;82.40;;
20067;SDS011;10194;50.824;7.134;2023-07-29T06:45:56;144.27;;;85.97;;
20067;SDS011;10194;50.824;7.134;2023-07-29T06:48:22;142.17;;;85.33;;
20067;SDS011;10194;50.824;7.134;2023-07-29T06:50:48;139.70;;;82.40;;
20067;SDS011;10194;50.824;7.134;2023-07-29T06:53:15;141.57;;;82.37;;
20067;SDS011;10194;50.824;7.134;2023-07-29T06:55:41;138.33;;;83.17;;
20067;SDS011;10194;50.824;7.134;2023-07-29T06:58:08;140.07;;;85.40;;
20067;SDS011;10194;50.824;7.134;2023-07-29T07:00:34;142.90;;;84.63;;
20067;SDS011;10194;50.824;7.134;2023-07-29T07:03:00;142.77;;;84.97;;
20067;SDS011;10194;50.824;7.134;2023-07-29T07:05:26;142.27;;;84.47;;
20067;SDS011;10194;50.824;7.134;2023-07-29T07:07:52;144.30;;;84.53;;
20067;SDS011;10194;50.824;7.134;2023-07-29T07:10:17;142.50;;;86.60;;
20067;SDS011;10194;50.824;7.134;2023-07-29T07:12:43;139.43;;;84.97;;
20067;SDS011;10194;50.824;7.134;2023-07-29T07:15:09;141.07;;;84.83;;
20067;SDS011;10194;50.824;7.134;2023-07-29T07:17:35;140.83;;;86.03;;
20067;SDS011;10194;50.824;7.134;2023-07-29T07:20:01;142.13;;;87.23;;
20067;SDS011;10194;50.824;7.134;2023-07-29T07:22:27;141.83;;;87.33;;
20067;SDS011;10194;50.824;7.134;2023-07-29T07:24:52;144.57;;;87.07;;
20067;SDS011;10194;50.824;7.134;2023-07-29T07:27:18;141.90;;;85.00;;
20067;SDS011;10194;50.824;7.134;2023-07-29T07:29:44;143.27;;;85.73;;
20067;SDS011;10194;50.824;7.134;2023-07-29T07:32:10;143.30;;;87.07;;
20067;SDS011;10194;50.824;7.134;2023-07-29T07:34:35;143.97;;;89.10;;
20067;SDS011;10194;50.824;7.134;2023-07-29T07:37:01;142.17;;;86.07;;
20067;SDS011;10194;50.824;7.134;2023-07-29T07:39:28;139.40;;;83.70;;
20067;SDS011;10194;50.824;7.134;2023-07-29T07:41:54;140.70;;;85.27;;
20067;SDS011;10194;50.824;7.134;2023-07-29T07:44:20;141.53;;;87.53;;
20067;SDS011;10194;50.824;7.134;2023-07-29T07:46:46;144.60;;;87.50;;
20067;SDS011;10194;50.824;7.134;2023-07-29T07:49:12;147.93;;;89.97;;
20067;SDS011;10194;50.824;7.134;2023-07-29T07:51:39;148.93;;;88.00;;
20067;SDS011;10194;50.824;7.134;2023-07-29T07:54:04;151.00;;;94.90;;
20067;SDS011;10194;50.824;7.134;2023-07-29T07:56:30;144.93;;;88.10;;
20067;SDS011;10194;50.824;7.134;2023-07-29T07:58:56;146.97;;;89.97;;
20067;SDS011;10194;50.824;7.134;2023-07-29T08:01:22;143.00;;;87.57;;
20067;SDS011;10194;50.824;7.134;2023-07-29T08:03:47;144.87;;;87.97;;
20067;SDS011;10194;50.824;7.134;2023-07-29T08:06:13;145.87;;;90.13;;
20067;SDS011;10194;50.824;7.134;2023-07-29T08:08:39;142.10;;;88.77;;
20067;SDS011;10194;50.824;7.134;2023-07-29T08:11:05;147.40;;;92.50;;
20067;SDS011;10194;50.824;7.134;2023-07-29T08:13:30;147.43;;;92.50;;
20067;SDS011;10194;50.824;7.134;2023-07-29T08:15:56;145.20;;;89.67;;
20067;SDS011;10194;50.824;7.134;2023-07-29T08:18:22;145.87;;;93.53;;
20067;SDS011;10194;50.824;7.134;2023-07-29T08:20:51;146.67;;;97.00;;
20067;SDS011;10194;50.824;7.134;2023-07-29T08:23:25;145.13;;;91.73;;
20067;SDS011;10194;50.824;7.134;2023-07-29T08:25:52;148.33;;;95.73;;
20067;SDS011;10194;50.824;7.134;2023-07-29T08:28:19;145.17;;;93.27;;
20067;SDS011;10194;50.824;7.134;2023-07-29T08:30:46;146.30;;;92.23;;
20067;SDS011;10194;50.824;7.134;2023-07-29T08:33:11;147.93;;;91.80;;
20067;SDS011;10194;50.824;7.134;2023-07-29T08:35:37;146.40;;;91.67;;
20067;SDS011;10194;50.824;7.134;2023-07-29T08:38:03;146.30;;;91.30;;
20067;SDS011;10194;50.824;7.134;2023-07-29T08:40:29;146.67;;;92.80;;
20067;SDS011;10194;50.824;7.134;2023-07-29T08:42:57;148.23;;;96.87;;
20067;SDS011;10194;50.824;7.134;2023-07-29T08:45:30;147.73;;;95.33;;
20067;SDS011;10194;50.824;7.134;2023-07-29T08:48:00;151.37;;;96.53;;
20067;SDS011;10194;50.824;7.134;2023-07-29T08:50:32;150.80;;;95.33;;
20067;SDS011;10194;50.824;7.134;2023-07-29T08:52:59;147.53;;;95.17;;
20067;SDS011;10194;50.824;7.134;2023-07-29T08:55:25;145.33;;;92.33;;
20067;SDS011;10194;50.824;7.134;2023-07-29T08:57:51;145.37;;;92.30;;
20067;SDS011;10194;50.824;7.134;2023-07-29T09:00:18;146.03;;;93.17;;
20067;SDS011;10194;50.824;7.134;2023-07-29T09:02:45;147.97;;;94.10;;
20067;SDS011;10194;50.824;7.134;2023-07-29T09:05:10;144.17;;;91.23;;
20067;SDS011;10194;50.824;7.134;2023-07-29T09:07:36;147.40;;;92.90;;
20067;SDS011;10194;50.824;7.134;2023-07-29T09:10:03;144.77;;;91.53;;
20067;SDS011;10194;50.824;7.134;2023-07-29T09:12:29;142.07;;;89.07;;
20067;SDS011;10194;50.824;7.134;2023-07-29T09:14:55;142.43;;;88.27;;
20067;SDS011;10194;50.824;7.134;2023-07-29T09:17:21;146.53;;;92.50;;
20067;SDS011;10194;50.824;7.134;2023-07-29T09:19:49;142.67;;;89.67;;
20067;SDS011;10194;50.824;7.134;2023-07-29T09:22:19;144.50;;;90.37;;
20067;SDS011;10194;50.824;7.134;2023-07-29T09:24:46;145.77;;;91.97;;
20067;SDS011;10194;50.824;7.134;2023-07-29T09:27:23;144.60;;;90.93;;
20067;SDS011;10194;50.824;7.134;2023-07-29T09:29:50;147.50;;;92.03;;
20067;SDS011;10194;50.824;7.134;2023-07-29T09:32:23;146.87;;;92.90;;
20067;SDS011;10194;50.824;7.134;2023-07-29T09:34:50;144.93;;;90.97;;
20067;SDS011;10194;50.824;7.134;2023-07-29T09:37:17;144.00;;;91.17;;
20067;SDS011;10194;50.824;7.134;2023-07-29T09:39:47;147.00;;;93.10;;
20067;SDS011;10194;50.824;7.134;2023-07-29T09:42:18;141.90;;;89.17;;
20067;SDS011;10194;50.824;7.134;2023-07-29T09:44:46;145.20;;;92.53;;
20067;SDS011;10194;50.824;7.134;2023-07-29T09:47:24;145.80;;;92.10;;
20067;SDS011;10194;50.824;7.134;2023-07-29T09:49:51;144.90;;;92.67;;
20067;SDS011;10194;50.824;7.134;2023-07-29T09:52:18;150.83;;;95.63;;
20067;SDS011;10194;50.824;7.134;2023-07-29T09:54:45;145.60;;;93.90;;
20067;SDS011;10194;50.824;7.134;2023-07-29T09:57:16;148.07;;;92.20;;
20067;SDS011;10194;50.824;7.134;2023-07-29T09:59:54;146.83;;;90.07;;
20067;SDS011;10194;50.824;7.134;2023-07-29T10:02:21;146.87;;;93.40;;
20067;SDS011;10194;50.824;7.134;2023-07-29T10:04:48;145.67;;;92.03;;
20067;SDS011;10194;50.824;7.134;2023-07-29T10:07:15;148.33;;;91.83;;
20067;SDS011;10194;50.824;7.134;2023-07-29T10:09:42;145.27;;;90.50;;
20067;SDS011;10194;50.824;7.134;2023-07-29T10:12:09;146.27;;;92.87;;
20067;SDS011;10194;50.824;7.134;2023-07-29T10:14:36;143.53;;;89.87;;
20067;SDS011;10194;50.824;7.134;2023-07-29T10:17:04;147.23;;;92.43;;
20067;SDS011;10194;50.824;7.134;2023-07-29T10:19:30;145.13;;;92.07;;
20067;SDS011;10194;50.824;7.134;2023-07-29T10:21:58;143.40;;;90.77;;
20067;SDS011;10194;50.824;7.134;2023-07-29T10:24:32;143.67;;;91.60;;
20067;SDS011;10194;50.824;7.134;2023-07-29T10:26:59;144.50;;;92.27;;
20067;SDS011;10194;50.824;7.134;2023-07-29T10:29:33;143.27;;;91.40;;
20067;SDS011;10194;50.824;7.134;2023-07-29T10:32:04;147.33;;;93.77;;
20067;SDS011;10194;50.824;7.134;2023-07-29T10:34:32;141.73;;;89.63;;
20067;SDS011;10194;50.824;7.134;2023-07-29T10:37:00;143.73;;;92.57;;
20067;SDS011;10194;50.824;7.134;2023-07-29T10:39:26;143.93;;;90.83;;
20067;SDS011;10194;50.824;7.134;2023-07-29T10:41:58;143.90;;;90.10;;
20067;SDS011;10194;50.824;7.134;2023-07-29T10:47:29;147.97;;;92.43;;
20067;SDS011;10194;50.824;7.134;2023-07-29T10:49:55;148.33;;;90.63;;
20067;SDS011;10194;50.824;7.134;2023-07-29T10:52:30;144.53;;;90.17;;
20067;SDS011;10194;50.824;7.134;2023-07-29T10:54:59;145.20;;;88.37;;
20067;SDS011;10194;50.824;7.134;2023-07-29T10:57:35;143.67;;;88.77;;
20067;SDS011;10194;50.824;7.134;2023-07-29T11:00:06;144.20;;;88.53;;
20067;SDS011;10194;50.824;7.134;2023-07-29T11:02:34;143.73;;;88.93;;
20067;SDS011;10194;50.824;7.134;2023-07-29T11:05:05;143.83;;;87.70;;
20067;SDS011;10194;50.824;7.134;2023-07-29T11:07:51;142.87;;;87.43;;
20067;SDS011;10194;50.824;7.134;2023-07-29T11:10:17;144.80;;;90.13;;
20067;SDS011;10194;50.824;7.134;2023-07-29T11:12:46;144.10;;;88.83;;
20067;SDS011;10194;50.824;7.134;2023-07-29T11:15:17;148.43;;;92.03;;
20067;SDS011;10194;50.824;7.134;2023-07-29T11:20:20;144.13;;;89.70;;
20067;SDS011;10194;50.824;7.134;2023-07-29T11:22:49;147.47;;;91.97;;
20067;SDS011;10194;50.824;7.134;2023-07-29T11:25:16;146.93;;;91.63;;
20067;SDS011;10194;50.824;7.134;2023-07-29T11:27:43;146.43;;;91.60;;
20067;SDS011;10194;50.824;7.134;2023-07-29T11:30:11;145.60;;;92.03;;
20067;SDS011;10194;50.824;7.134;2023-07-29T11:32:39;143.43;;;91.13;;
20067;SDS011;10194;50.824;7.134;2023-07-29T11:35:10;145.27;;;92.60;;
20067;SDS011;10194;50.824;7.134;2023-07-29T11:37:38;144.43;;;93.13;;
20067;SDS011;10194;50.824;7.134;2023-07-29T11:40:04;149.03;;;93.37;;
20067;SDS011;10194;50.824;7.134;2023-07-29T11:42:32;145.13;;;93.63;;
20067;SDS011;10194;50.824;7.134;2023-07-29T11:44:59;148.37;;;94.63;;
20067;SDS011;10194;50.824;7.134;2023-07-29T11:47:31;147.83;;;94.40;;
20067;SDS011;10194;50.824;7.134;2023-07-29T11:50:00;148.77;;;95.17;;
20067;SDS011;10194;50.824;7.134;2023-07-29T11:52:31;148.03;;;94.03;;
20067;SDS011;10194;50.824;7.134;2023-07-29T11:54:58;152.50;;;95.97;;
20067;SDS011;10194;50.824;7.134;2023-07-29T11:57:25;147.93;;;94.57;;
20067;SDS011;10194;50.824;7.134;2023-07-29T11:59:51;150.90;;;99.20;;
20067;SDS011;10194;50.824;7.134;2023-07-29T12:02:18;150.83;;;97.20;;
20067;SDS011;10194;50.824;7.134;2023-07-29T12:04:46;150.00;;;97.67;;
20067;SDS011;10194;50.824;7.134;2023-07-29T12:07:13;147.77;;;97.00;;
20067;SDS011;10194;50.824;7.134;2023-07-29T12:09:43;150.53;;;95.67;;
20067;SDS011;10194;50.824;7.134;2023-07-29T12:12:11;147.33;;;96.30;;
20067;SDS011;10194;50.824;7.134;2023-07-29T12:14:37;146.93;;;96.20;;
20067;SDS011;10194;50.824;7.134;2023-07-29T12:17:04;147.50;;;94.83;;
20067;SDS011;10194;50.824;7.134;2023-07-29T12:19:34;149.40;;;97.20;;
20067;SDS011;10194;50.824;7.134;2023-07-29T12:22:02;147.57;;;97.07;;
20067;SDS011;10194;50.824;7.134;2023-07-29T12:24:31;148.23;;;94.50;;
20067;SDS011;10194;50.824;7.134;2023-07-29T12:27:01;147.40;;;96.87;;
20067;SDS011;10194;50.824;7.134;2023-07-29T12:29:27;149.97;;;97.23;;
20067;SDS011;10194;50.824;7.134;2023-07-29T12:32:00;147.43;;;94.07;;
20067;SDS011;10194;50.824;7.134;2023-07-29T12:34:29;145.87;;;90.83;;
20067;SDS011;10194;50.824;7.134;2023-07-29T12:36:57;145.20;;;91.70;;
20067;SDS011;10194;50.824;7.134;2023-07-29T12:39:28;145.33;;;91.17;;
20067;SDS011;10194;50.824;7.134;2023-07-29T12:41:57;145.57;;;92.77;;
20067;SDS011;10194;50.824;7.134;2023-07-29T12:44:29;146.37;;;91.67;;
20067;SDS011;10194;50.824;7.134;2023-07-29T12:47:00;145.57;;;92.50;;
20067;SDS011;10194;50.824;7.134;2023-07-29T12:49:28;146.10;;;92.33;;
20067;SDS011;10194;50.824;7.134;2023-07-29T12:51:55;143.83;;;90.13;;
20067;SDS011;10194;50.824;7.134;2023-07-29T12:54:22;146.27;;;93.27;;
20067;SDS011;10194;50.824;7.134;2023-07-29T12:56:48;147.27;;;93.17;;
20067;SDS011;10194;50.824;7.134;2023-07-29T12:59:14;149.30;;;93.17;;
20067;SDS011;10194;50.824;7.134;2023-07-29T13:01:40;146.20;;;93.53;;
20067;SDS011;10194;50.824;7.134;2023-07-29T13:04:06;144.53;;;93.07;;
20067;SDS011;10194;50.824;7.134;2023-07-29T13:06:32;146.43;;;93.40;;
20067;SDS011;10194;50.824;7.134;2023-07-29T13:08:58;149.17;;;93.70;;
20067;SDS011;10194;50.824;7.134;2023-07-29T13:11:23;146.73;;;93.27;;
20067;SDS011;10194;50.824;7.134;2023-07-29T13:13:49;144.37;;;92.47;;
20067;SDS011;10194;50.824;7.134;2023-07-29T13:16:15;149.97;;;94.20;;
20067;SDS011;10194;50.824;7.134;2023-07-29T13:18:41;145.67;;;94.00;;
20067;SDS011;10194;50.824;7.134;2023-07-29T13:21:08;148.87;;;93.80;;
20067;SDS011;10194;50.824;7.134;2023-07-29T13:23:34;146.47;;;94.40;;
20067;SDS011;10194;50.824;7.134;2023-07-29T13:26:00;147.27;;;96.10;;
20067;SDS011;10194;50.824;7.134;2023-07-29T13:28:26;145.93;;;93.70;;
20067;SDS011;10194;50.824;7.134;2023-07-29T13:30:51;144.83;;;92.83;;
20067;SDS011;10194;50.824;7.134;2023-07-29T13:33:17;145.83;;;91.37;;
20067;SDS011;10194;50.824;7.134;2023-07-29T13:35:43;141.07;;;87.47;;
20067;SDS011;10194;50.824;7.134;2023-07-29T13:38:09;142.47;;;89.00;;
20067;SDS011;10194;50.824;7.134;2023-07-29T13:40:36;143.73;;;90.40;;
20067;SDS011;10194;50.824;7.134;2023-07-29T13:43:01;143.97;;;89.10;;
20067;SDS011;10194;50.824;7.134;2023-07-29T13:45:27;142.33;;;88.40;;
20067;SDS011;10194;50.824;7.134;2023-07-29T13:47:53;145.17;;;90.40;;
20067;SDS011;10194;50.824;7.134;2023-07-29T13:50:19;142.80;;;87.10;;
20067;SDS011;10194;50.824;7.134;2023-07-29T13:52:45;142.50;;;86.93;;
20067;SDS011;10194;50.824;7.134;2023-07-29T13:55:10;143.83;;;89.33;;
20067;SDS011;10194;50.824;7.134;2023-07-29T13:57:37;142.97;;;87.23;;
20067;SDS011;10194;50.824;7.134;2023-07-29T14:00:06;142.60;;;86.10;;
20067;SDS011;10194;50.824;7.134;2023-07-29T14:02:33;145.47;;;86.90;;
20067;SDS011;10194;50.824;7.134;2023-07-29T14:04:59;148.63;;;87.87;;
20067;SDS011;10194;50.824;7.134;2023-07-29T14:07:24;141.50;;;84.93;;
20067;SDS011;10194;50.824;7.134;2023-07-29T14:09:50;141.63;;;86.23;;
20067;SDS011;10194;50.824;7.134;2023-07-29T14:12:16;141.70;;;83.83;;
20067;SDS011;10194;50.824;7.134;2023-07-29T14:14:42;140.40;;;83.10;;
20067;SDS011;10194;50.824;7.134;2023-07-29T14:17:07;140.37;;;83.30;;
20067;SDS011;10194;50.824;7.134;2023-07-29T14:19:34;143.10;;;84.33;;
20067;SDS011;10194;50.824;7.134;2023-07-29T14:22:03;141.73;;;83.37;;